Time;durP1;ratioP1;P1;durP2;ratioP2;P2;SDS_P1;SDS_P2;PMS_P1;PMS_P2;Temp;Humidity;BMP_temperature;BMP_pressure;BME280_temperature;BME280_humidity;BME280_pressure;Samples;Min_cycle;Max_cycle;Signal;HPM_P1;HPM_P2
2022/07/17 00:01:02;;;;;;;6.32;1.50;;;17.60;92.80;;;;;;7349063;19;107839;-92
2022/07/17 00:03:29;;;;;;;6.90;1.75;;;17.60;93.20;;;;;;7353891;19;110602;-91
2022/07/17 00:05:56;;;;;;;7.20;1.55;;;17.50;94.10;;;;;;7357202;19;107054;-92
2022/07/17 00:08:24;;;;;;;5.50;1.30;;;17.40;94.30;;;;;;7349719;19;110295;-91
2022/07/17 00:10:52;;;;;;;8.02;1.23;;;17.30;94.40;;;;;;7349268;19;108472;-91
2022/07/17 00:13:19;;;;;;;6.28;1.42;;;17.30;94.20;;;;;;7350051;19;107509;-92
2022/07/17 00:15:46;;;;;;;7.57;1.45;;;17.40;94.20;;;;;;7349697;19;108611;-92
2022/07/17 00:18:13;;;;;;;6.68;1.42;;;17.40;94.80;;;;;;7349664;19;109394;-91
2022/07/17 00:20:41;;;;;;;8.68;1.77;;;17.30;95.30;;;;;;7346649;19;106759;-91
2022/07/17 00:23:08;;;;;;;7.95;1.75;;;17.10;96.10;;;;;;7347171;19;109688;-90
2022/07/17 00:25:35;;;;;;;7.68;1.45;;;17.10;95.90;;;;;;7354796;19;110564;-91
2022/07/17 00:28:03;;;;;;;7.50;1.55;;;17.10;96.00;;;;;;7348146;19;108302;-92
2022/07/17 00:30:30;;;;;;;9.85;1.88;;;17.10;95.90;;;;;;7347539;19;107103;-92
2022/07/17 00:32:57;;;;;;;7.00;1.80;;;17.10;96.30;;;;;;7349158;19;111611;-93
2022/07/17 00:35:25;;;;;;;4.88;1.63;;;17.10;96.70;;;;;;7355134;19;108725;-92
2022/07/17 00:37:52;;;;;;;6.60;1.80;;;17.10;96.60;;;;;;7377358;19;111746;-91
2022/07/17 00:40:22;;;;;;;9.30;1.83;;;17.00;97.40;;;;;;7377794;19;110022;-90
2022/07/17 00:42:50;;;;;;;7.72;1.75;;;16.90;97.20;;;;;;7376028;19;106794;-90
2022/07/17 00:45:18;;;;;;;12.43;2.25;;;16.90;97.00;;;;;;7360353;19;110975;-92
2022/07/17 00:48:01;;;;;;;9.20;1.42;;;16.90;97.70;;;;;;7351898;19;110645;-92
2022/07/17 00:50:37;;;;;;;8.93;1.50;;;16.90;97.40;;;;;;7345591;19;111235;-92
2022/07/17 00:53:05;;;;;;;7.15;2.20;;;16.90;97.30;;;;;;7345717;19;111384;-92
2022/07/17 00:55:33;;;;;;;4.80;1.85;;;16.90;97.70;;;;;;7348066;19;108418;-92
2022/07/17 00:58:10;;;;;;;;;;;16.80;98.30;;;;;;7350672;19;107826;-93
2022/07/17 01:00:38;;;;;;;4.93;2.10;;;16.60;99.10;;;;;;7350066;19;109224;-90
2022/07/17 01:03:09;;;;;;;6.68;2.10;;;16.40;99.20;;;;;;7346814;19;106955;-91
2022/07/17 01:05:36;;;;;;;9.02;2.10;;;16.30;99.60;;;;;;7348721;19;108327;-92
2022/07/17 01:08:03;;;;;;;4.47;2.10;;;16.30;99.50;;;;;;7347475;19;108074;-91
2022/07/17 01:10:30;;;;;;;5.20;2.08;;;16.40;99.40;;;;;;7350560;19;110367;-92
2022/07/17 01:12:57;;;;;;;5.30;1.88;;;16.40;99.60;;;;;;7346619;19;109103;-92
2022/07/17 01:15:25;;;;;;;7.97;1.95;;;16.30;99.80;;;;;;7346254;19;109442;-92
2022/07/17 01:17:52;;;;;;;8.00;1.88;;;16.30;99.80;;;;;;7347729;19;108577;-92
2022/07/17 01:20:19;;;;;;;4.22;1.80;;;16.40;99.50;;;;;;7346744;19;111607;-91
2022/07/17 01:22:49;;;;;;;5.95;1.75;;;16.50;99.10;;;;;;7347779;19;108296;-91
2022/07/17 01:25:21;;;;;;;8.88;1.90;;;16.50;98.80;;;;;;7345400;19;108068;-92
2022/07/17 01:27:48;;;;;;;5.80;2.00;;;16.60;98.50;;;;;;7346744;19;109210;-92
2022/07/17 01:30:16;;;;;;;6.57;1.50;;;16.60;98.40;;;;;;7345379;19;110866;-92
2022/07/17 01:32:43;;;;;;;5.40;1.73;;;16.60;98.40;;;;;;7352416;19;109403;-92
2022/07/17 01:35:13;;;;;;;3.28;1.40;;;16.60;98.40;;;;;;7345104;19;108339;-92
2022/07/17 01:37:41;;;;;;;6.43;1.63;;;16.50;98.40;;;;;;7343807;19;110875;-92
2022/07/17 01:40:12;;;;;;;8.45;1.55;;;16.50;98.50;;;;;;7346916;19;107872;-92
2022/07/17 01:42:42;;;;;;;5.65;1.80;;;16.40;98.60;;;;;;7345460;19;110623;-91
2022/07/17 01:45:11;;;;;;;8.43;2.17;;;16.30;99.30;;;;;;7346281;19;107241;-92
2022/07/17 01:47:38;;;;;;;4.38;1.90;;;16.20;99.90;;;;;;7344079;19;108467;-92
2022/07/17 01:50:07;;;;;;;6.68;1.98;;;16.00;99.70;;;;;;7340204;19;107372;-93
2022/07/17 01:52:39;;;;;;;7.30;1.98;;;16.00;99.90;;;;;;7342457;19;111957;-92
2022/07/17 01:55:09;;;;;;;5.68;1.73;;;15.90;99.90;;;;;;7346027;19;110219;-93
2022/07/17 01:57:36;;;;;;;4.80;1.95;;;16.00;99.90;;;;;;7342438;19;110691;-92
2022/07/17 02:00:06;;;;;;;4.03;1.77;;;16.00;99.70;;;;;;7342923;19;110254;-92
2022/07/17 02:02:33;;;;;;;4.15;1.85;;;16.10;99.70;;;;;;7341112;19;109015;-92
2022/07/17 02:05:01;;;;;;;5.50;1.80;;;16.10;99.40;;;;;;7339829;19;108609;-92
2022/07/17 02:07:28;;;;;;;4.55;1.80;;;16.10;99.30;;;;;;7341248;19;110882;-92
2022/07/17 02:09:55;;;;;;;8.35;1.80;;;16.10;99.50;;;;;;7337985;19;110353;-92
2022/07/17 02:12:23;;;;;;;8.60;1.95;;;16.00;99.90;;;;;;7337185;19;108632;-92
2022/07/17 02:14:50;;;;;;;6.90;1.92;;;15.80;99.90;;;;;;7341856;19;111133;-92
2022/07/17 02:17:17;;;;;;;8.50;2.20;;;15.80;99.90;;;;;;7344287;19;107346;-92
2022/07/17 02:19:44;;;;;;;6.40;1.90;;;15.90;99.90;;;;;;7340069;19;111463;-92
2022/07/17 02:22:11;;;;;;;6.82;2.13;;;15.80;99.90;;;;;;7339874;19;109836;-92
2022/07/17 02:24:38;;;;;;;4.75;2.10;;;15.70;99.90;;;;;;7339709;19;109643;-92
2022/07/17 02:27:05;;;;;;;11.23;2.90;;;15.70;99.90;;;;;;7340358;19;111342;-93
2022/07/17 02:29:32;;;;;;;7.82;2.30;;;15.60;99.90;;;;;;7340297;19;110386;-92
2022/07/17 02:32:00;;;;;;;5.10;2.28;;;15.60;99.90;;;;;;7337771;19;108530;-93
2022/07/17 02:34:27;;;;;;;5.50;1.75;;;15.70;99.90;;;;;;7339042;19;109285;-92
2022/07/17 02:36:54;;;;;;;3.95;1.90;;;15.80;99.90;;;;;;7343994;19;107753;-92
2022/07/17 02:39:21;;;;;;;4.20;2.00;;;15.80;99.90;;;;;;7347586;19;107791;-92
2022/07/17 02:41:49;;;;;;;3.85;1.88;;;15.80;99.90;;;;;;7347961;19;109236;-92
2022/07/17 02:44:16;;;;;;;4.40;2.10;;;15.80;99.90;;;;;;7347022;19;108987;-92
2022/07/17 02:46:43;;;;;;;6.97;2.03;;;15.80;99.90;;;;;;7346904;19;108552;-92
2022/07/17 02:49:10;;;;;;;3.85;1.90;;;15.70;99.90;;;;;;7347663;19;107467;-93
2022/07/17 02:51:37;;;;;;;6.18;1.83;;;15.70;99.90;;;;;;7345160;19;108193;-91
2022/07/17 02:54:04;;;;;;;3.67;1.55;;;15.50;99.90;;;;;;7345901;19;111605;-92
2022/07/17 02:56:35;;;;;;;6.40;1.90;;;15.50;99.90;;;;;;7348386;19;110691;-92
2022/07/17 02:59:02;;;;;;;5.13;1.90;;;15.50;99.90;;;;;;7352077;19;108740;-92
2022/07/17 03:01:30;;;;;;;4.45;1.80;;;15.50;99.90;;;;;;7352986;19;111003;-92
2022/07/17 03:03:58;;;;;;;5.57;2.08;;;15.50;99.90;;;;;;7353235;19;107955;-92
2022/07/17 03:06:25;;;;;;;4.32;2.00;;;15.50;99.90;;;;;;7352521;19;111194;-92
2022/07/17 03:08:52;;;;;;;8.88;1.73;;;15.40;99.90;;;;;;7352588;19;108364;-92
2022/07/17 03:11:19;;;;;;;6.93;1.95;;;15.30;99.90;;;;;;7352202;19;111195;-92
2022/07/17 03:13:46;;;;;;;4.38;1.88;;;15.30;99.90;;;;;;7351665;19;109770;-91
2022/07/17 03:16:13;;;;;;;8.07;2.10;;;15.20;99.90;;;;;;7352192;19;107387;-91
2022/07/17 03:18:41;;;;;;;5.70;2.00;;;15.20;99.90;;;;;;7352481;19;107340;-91
2022/07/17 03:21:08;;;;;;;6.63;2.38;;;15.20;99.90;;;;;;7357283;19;110602;-92
2022/07/17 03:23:35;;;;;;;4.93;2.08;;;15.00;99.90;;;;;;7352045;19;111305;-91
2022/07/17 03:26:02;;;;;;;6.43;2.20;;;14.90;99.90;;;;;;7353014;19;108034;-93
2022/07/17 03:28:29;;;;;;;4.03;1.80;;;14.90;99.90;;;;;;7351544;19;110576;-92
2022/07/17 03:30:56;;;;;;;10.68;2.40;;;14.90;99.90;;;;;;7351139;19;108334;-92
2022/07/17 03:33:23;;;;;;;5.63;2.05;;;14.90;99.90;;;;;;7351295;19;107870;-92
2022/07/17 03:35:51;;;;;;;5.10;2.03;;;14.80;99.90;;;;;;7352175;19;107808;-92
2022/07/17 03:38:18;;;;;;;4.80;1.77;;;14.80;99.90;;;;;;7348701;19;109478;-92
2022/07/17 03:40:45;;;;;;;3.38;2.03;;;14.80;99.90;;;;;;7349691;19;111745;-93
2022/07/17 03:43:13;;;;;;;4.55;1.80;;;14.90;99.90;;;;;;7355592;19;109916;-92
2022/07/17 03:45:40;;;;;;;4.38;2.08;;;14.80;99.90;;;;;;7351947;19;109072;-92
2022/07/17 03:48:08;;;;;;;7.75;2.00;;;14.80;99.90;;;;;;7349753;19;110695;-92
2022/07/17 03:50:35;;;;;;;4.03;1.60;;;14.80;99.90;;;;;;7348182;19;110558;-93
2022/07/17 03:53:02;;;;;;;5.63;2.08;;;14.90;99.90;;;;;;7348228;19;110514;-93
2022/07/17 03:55:29;;;;;;;6.50;2.17;;;14.80;99.90;;;;;;7350449;19;110583;-92
2022/07/17 03:57:57;;;;;;;5.45;1.98;;;14.70;99.90;;;;;;7351365;19;110592;-92
2022/07/17 04:00:24;;;;;;;4.65;2.08;;;14.60;99.90;;;;;;7350583;19;109581;-92
2022/07/17 04:02:51;;;;;;;5.93;1.90;;;14.60;99.90;;;;;;7350950;19;110954;-93
2022/07/17 04:05:18;;;;;;;6.50;3.13;;;14.60;99.90;;;;;;7353349;19;110674;-92
2022/07/17 04:07:45;;;;;;;6.90;2.20;;;14.50;99.90;;;;;;7350211;19;110952;-93
2022/07/17 04:10:14;;;;;;;13.55;2.47;;;14.40;99.90;;;;;;7348398;19;108762;-91
2022/07/17 04:12:42;;;;;;;7.32;1.90;;;14.40;99.90;;;;;;7347131;19;110709;-91
2022/07/17 04:15:09;;;;;;;11.10;2.08;;;14.40;99.90;;;;;;7348885;19;110368;-91
2022/07/17 04:17:36;;;;;;;11.55;2.75;;;14.50;99.90;;;;;;7350333;19;110929;-92
2022/07/17 04:20:04;;;;;;;5.22;2.42;;;14.40;99.90;;;;;;7349025;19;108629;-92
2022/07/17 04:22:31;;;;;;;4.68;2.03;;;14.40;99.90;;;;;;7348817;19;110892;-92
2022/07/17 04:24:58;;;;;;;5.57;2.10;;;14.50;99.90;;;;;;7352975;19;110034;-92
2022/07/17 04:27:25;;;;;;;10.50;2.35;;;14.60;99.90;;;;;;7348979;19;110694;-91
2022/07/17 04:29:53;;;;;;;8.27;2.13;;;14.50;99.90;;;;;;7349131;19;108222;-92
2022/07/17 04:32:20;;;;;;;6.93;1.92;;;14.50;99.90;;;;;;7348831;19;110497;-92
2022/07/17 04:34:47;;;;;;;7.63;2.60;;;14.50;99.90;;;;;;7350452;19;109838;-92
2022/07/17 04:37:14;;;;;;;10.63;2.55;;;14.50;99.90;;;;;;7350821;19;107842;-92
2022/07/17 04:39:41;;;;;;;4.75;2.78;;;14.60;99.90;;;;;;7349210;19;107934;-92
2022/07/17 04:42:08;;;;;;;9.18;3.20;;;14.70;99.90;;;;;;7350182;19;107600;-92
2022/07/17 04:44:36;;;;;;;8.95;3.97;;;14.70;99.90;;;;;;7350537;19;107978;-92
2022/07/17 04:47:03;;;;;;;7.63;3.60;;;14.70;99.90;;;;;;7355177;19;112144;-92
2022/07/17 04:49:30;;;;;;;15.13;3.60;;;14.50;99.90;;;;;;7349111;19;110260;-93
2022/07/17 04:51:58;;;;;;;6.85;3.60;;;14.50;99.90;;;;;;7348214;19;110181;-92
2022/07/17 04:54:25;;;;;;;8.32;3.97;;;14.60;99.90;;;;;;7350824;19;108105;-92
2022/07/17 04:56:52;;;;;;;10.85;3.80;;;14.70;99.90;;;;;;7348475;19;110242;-92
2022/07/17 04:59:19;;;;;;;33.40;3.58;;;14.80;99.90;;;;;;7350629;19;111413;-92
2022/07/17 05:01:46;;;;;;;9.52;3.47;;;14.80;99.90;;;;;;7345996;19;109717;-92
2022/07/17 05:04:13;;;;;;;10.38;3.45;;;14.90;99.90;;;;;;7349553;19;108453;-94
2022/07/17 05:06:41;;;;;;;9.07;3.58;;;15.00;99.90;;;;;;7350115;19;111551;-95
2022/07/17 05:09:08;;;;;;;9.25;4.05;;;15.10;99.90;;;;;;7355108;19;107250;-95
2022/07/17 05:11:36;;;;;;;12.07;5.00;;;15.10;99.90;;;;;;7348191;19;108114;-96
2022/07/17 05:14:03;;;;;;;11.00;5.15;;;15.10;99.90;;;;;;7349116;19;108724;-96
2022/07/17 05:16:31;;;;;;;9.75;4.53;;;15.10;99.90;;;;;;7352677;19;107505;-96
2022/07/17 05:18:58;;;;;;;11.18;4.50;;;15.10;99.90;;;;;;7348969;19;110551;-95
2022/07/17 05:21:26;;;;;;;10.55;4.97;;;15.20;99.90;;;;;;7349032;19;109017;-95
2022/07/17 05:23:53;;;;;;;13.05;4.47;;;15.20;99.90;;;;;;7349388;19;110884;-94
2022/07/17 05:26:21;;;;;;;18.52;4.40;;;15.20;99.90;;;;;;7347666;19;110480;-95
2022/07/17 05:28:48;;;;;;;9.05;4.00;;;15.20;99.90;;;;;;7348250;19;107183;-94
2022/07/17 05:31:15;;;;;;;7.93;3.70;;;15.30;99.90;;;;;;7352527;19;108759;-93
2022/07/17 05:33:42;;;;;;;13.40;4.05;;;15.40;99.90;;;;;;7342400;19;109818;-93
2022/07/17 05:36:09;;;;;;;11.10;3.97;;;15.60;99.90;;;;;;7345076;19;110539;-91
2022/07/17 05:38:37;;;;;;;12.50;3.83;;;15.70;99.90;;;;;;7345846;19;111408;-94
2022/07/17 05:41:04;;;;;;;14.30;3.90;;;15.70;99.90;;;;;;7344991;19;111230;-94
2022/07/17 05:43:32;;;;;;;11.75;3.80;;;15.80;99.90;;;;;;7345008;19;109918;-94
2022/07/17 05:45:59;;;;;;;12.02;3.80;;;15.80;99.90;;;;;;7345916;19;109666;-94
2022/07/17 05:48:26;;;;;;;12.10;3.58;;;15.90;99.90;;;;;;7347128;19;109640;-93
2022/07/17 05:50:53;;;;;;;8.57;3.92;;;15.90;99.90;;;;;;7346483;19;110981;-93
2022/07/17 05:53:21;;;;;;;6.88;3.88;;;15.90;99.90;;;;;;7350044;19;110549;-94
2022/07/17 05:55:49;;;;;;;6.35;3.50;;;16.00;99.90;;;;;;7346878;19;107126;-94
2022/07/17 05:58:16;;;;;;;10.80;3.70;;;16.00;99.90;;;;;;7345836;19;111558;-94
2022/07/17 06:00:45;;;;;;;8.20;3.65;;;16.10;99.90;;;;;;7345766;19;109872;-92
2022/07/17 06:03:12;;;;;;;9.73;3.88;;;16.20;99.90;;;;;;7346469;19;109599;-94
2022/07/17 06:05:39;;;;;;;9.20;3.20;;;16.20;99.90;;;;;;7345870;19;110834;-93
2022/07/17 06:08:07;;;;;;;11.85;3.53;;;16.30;99.90;;;;;;7345635;19;108438;-95
2022/07/17 06:10:34;;;;;;;8.73;3.50;;;16.40;99.90;;;;;;7344803;19;111089;-93
2022/07/17 06:13:01;;;;;;;17.40;3.95;;;16.50;99.90;;;;;;7347550;19;107904;-93
2022/07/17 06:15:28;;;;;;;7.72;3.33;;;16.60;99.90;;;;;;7356164;19;109674;-93
2022/07/17 06:17:59;;;;;;;10.73;3.30;;;16.70;99.90;;;;;;7351964;19;110952;-92
2022/07/17 06:20:26;;;;;;;7.78;2.95;;;16.80;99.90;;;;;;7348625;19;110948;-94
2022/07/17 06:22:53;;;;;;;9.90;3.55;;;16.80;99.90;;;;;;7350688;19;108188;-93
2022/07/17 06:25:21;;;;;;;7.50;3.38;;;17.00;99.90;;;;;;7351024;19;107886;-93
2022/07/17 06:27:48;;;;;;;6.22;3.72;;;17.10;99.90;;;;;;7352529;19;109185;-94
2022/07/17 06:30:16;;;;;;;13.90;3.40;;;17.20;99.90;;;;;;7351622;19;109999;-96
2022/07/17 06:32:44;;;;;;;11.55;3.28;;;17.30;99.90;;;;;;7353666;19;110124;-94
2022/07/17 06:35:11;;;;;;;9.23;3.42;;;17.50;99.90;;;;;;7357838;19;110894;-93
2022/07/17 06:37:38;;;;;;;7.43;2.70;;;17.70;99.90;;;;;;7351017;19;110408;-94
2022/07/17 06:40:06;;;;;;;6.15;2.67;;;17.80;99.90;;;;;;7352340;19;107490;-93
2022/07/17 06:42:33;;;;;;;8.30;2.67;;;17.90;99.90;;;;;;7350595;19;110709;-95
2022/07/17 06:45:00;;;;;;;7.93;2.88;;;18.10;99.90;;;;;;7353567;19;111471;-94
2022/07/17 06:47:28;;;;;;;8.07;2.50;;;18.20;99.90;;;;;;7354575;19;110598;-94
2022/07/17 06:49:55;;;;;;;9.60;2.85;;;18.20;99.90;;;;;;7354524;19;111096;-94
2022/07/17 06:52:23;;;;;;;9.55;2.35;;;18.30;99.90;;;;;;7353543;19;110037;-96
2022/07/17 06:54:56;;;;;;;5.60;2.10;;;18.40;99.90;;;;;;7354313;19;110124;-96
2022/07/17 06:57:24;;;;;;;5.97;2.30;;;18.50;99.90;;;;;;7359344;19;109168;-96
2022/07/17 07:00:00;;;;;;;9.32;2.35;;;18.70;99.90;;;;;;7355017;19;109037;-96
2022/07/17 07:02:33;;;;;;;6.32;2.63;;;18.80;99.90;;;;;;7354218;19;107626;-96
2022/07/17 07:05:01;;;;;;;7.50;2.35;;;18.90;99.90;;;;;;7353945;19;109438;-95
2022/07/17 07:07:32;;;;;;;7.90;2.45;;;18.90;99.90;;;;;;7352165;19;108104;-95
2022/07/17 07:10:03;;;;;;;6.57;1.92;;;19.00;99.90;;;;;;7351464;19;108027;-96
2022/07/17 07:12:32;;;;;;;10.15;2.08;;;19.20;99.90;;;;;;7341163;19;107308;-88
2022/07/17 07:14:59;;;;;;;5.22;1.50;;;19.40;99.90;;;;;;7344564;19;107692;-89
2022/07/17 07:17:26;;;;;;;5.60;1.75;;;19.50;99.80;;;;;;7344571;19;108393;-88
2022/07/17 07:19:53;;;;;;;11.10;1.80;;;19.60;99.70;;;;;;7351659;19;109408;-90
2022/07/17 07:22:20;;;;;;;5.57;1.92;;;19.70;99.50;;;;;;7348432;19;108529;-90
2022/07/17 07:24:47;;;;;;;6.53;2.10;;;19.70;99.40;;;;;;7344737;19;108397;-89
2022/07/17 07:27:15;;;;;;;9.68;1.98;;;19.80;99.60;;;;;;7347334;19;108802;-87
2022/07/17 07:29:44;;;;;;;6.07;1.20;;;19.90;99.40;;;;;;7341352;19;107696;-86
2022/07/17 07:32:11;;;;;;;6.55;1.48;;;19.90;98.50;;;;;;7340237;19;109053;-86
2022/07/17 07:34:38;;;;;;;8.48;1.83;;;19.90;98.60;;;;;;7339873;19;107883;-87
2022/07/17 07:37:05;;;;;;;5.22;1.10;;;20.00;98.00;;;;;;7342567;19;108701;-85
2022/07/17 07:39:32;;;;;;;5.18;1.23;;;20.10;98.40;;;;;;7342723;19;109109;-85
2022/07/17 07:41:59;;;;;;;4.85;1.48;;;20.20;98.10;;;;;;7349220;19;107952;-86
2022/07/17 07:44:27;;;;;;;8.63;1.45;;;20.40;97.90;;;;;;7343423;19;112754;-85
2022/07/17 07:46:58;;;;;;;8.38;1.60;;;20.60;97.90;;;;;;7342771;19;107914;-86
2022/07/17 07:49:29;;;;;;;7.43;1.30;;;20.70;96.80;;;;;;7343315;19;108257;-86
2022/07/17 07:52:04;;;;;;;3.42;1.00;;;20.70;97.10;;;;;;7340980;19;109831;-86
2022/07/17 07:54:33;;;;;;;6.68;1.17;;;20.70;96.90;;;;;;7339763;19;108061;-86
2022/07/17 07:57:00;;;;;;;9.02;1.27;;;20.80;96.80;;;;;;7341383;19;107863;-86
2022/07/17 07:59:32;;;;;;;9.57;1.25;;;20.90;96.30;;;;;;7339268;19;108668;-86
2022/07/17 08:02:00;;;;;;;8.20;1.30;;;20.90;96.10;;;;;;7342346;19;107705;-84
2022/07/17 08:04:28;;;;;;;9.55;1.10;;;20.90;96.20;;;;;;7348575;19;108286;-84
2022/07/17 08:06:55;;;;;;;4.45;1.10;;;20.90;95.90;;;;;;7341643;19;107202;-84
2022/07/17 08:09:23;;;;;;;9.30;1.05;;;21.00;95.60;;;;;;7341038;19;108318;-83
2022/07/17 08:11:50;;;;;;;12.57;2.10;;;21.10;95.60;;;;;;7339294;19;112643;-88
2022/07/17 08:14:17;;;;;;;4.60;1.30;;;21.30;95.10;;;;;;7338258;19;107328;-85
2022/07/17 08:16:45;;;;;;;3.83;1.05;;;21.30;95.00;;;;;;7341690;19;110590;-84
2022/07/17 08:21:57;;;;;;;5.03;1.13;;;21.60;94.70;;;;;;7323902;19;108978;-84
2022/07/17 08:24:24;;;;;;;5.25;1.00;;;21.50;94.30;;;;;;7338921;19;111450;-82
2022/07/17 08:26:52;;;;;;;4.25;1.00;;;21.40;94.30;;;;;;7347111;19;108914;-85
2022/07/17 08:29:19;;;;;;;7.80;1.20;;;21.40;94.10;;;;;;7342581;19;108207;-84
2022/07/17 08:32:06;;;;;;;19.50;1.47;;;21.40;94.90;;;;;;7341156;19;110794;-82
2022/07/17 08:34:33;;;;;;;3.50;1.00;;;21.40;94.70;;;;;;7336148;19;107452;-83
2022/07/17 08:37:00;;;;;;;1.30;0.75;;;21.50;95.00;;;;;;7337108;19;108450;-83
2022/07/17 08:39:27;;;;;;;2.70;0.80;;;21.60;93.70;;;;;;7339439;19;109267;-83
2022/07/17 08:41:55;;;;;;;3.60;0.90;;;21.80;94.00;;;;;;7339447;19;108337;-82
2022/07/17 08:44:22;;;;;;;3.17;0.90;;;21.90;92.20;;;;;;7340331;19;112278;-85
2022/07/17 08:46:50;;;;;;;2.90;0.98;;;21.90;92.70;;;;;;7344966;19;108082;-82
2022/07/17 08:49:21;;;;;;;4.15;0.95;;;22.00;92.00;;;;;;7338190;19;108300;-82
2022/07/17 08:51:49;;;;;;;3.70;0.85;;;21.80;91.40;;;;;;7339836;19;109159;-85
2022/07/17 08:54:16;;;;;;;3.40;0.95;;;21.80;92.50;;;;;;7340049;19;107626;-84
2022/07/17 08:56:44;;;;;;;2.33;0.88;;;21.90;92.90;;;;;;7340806;19;108665;-84
2022/07/17 08:59:11;;;;;;;22.73;1.48;;;22.00;91.70;;;;;;7340089;19;108995;-84
2022/07/17 09:01:38;;;;;;;5.72;0.98;;;22.10;92.40;;;;;;7339238;19;108013;-83
2022/07/17 09:04:06;;;;;;;6.13;0.90;;;22.20;91.70;;;;;;7339365;19;108716;-83
2022/07/17 09:06:34;;;;;;;3.25;0.90;;;22.30;92.00;;;;;;7340858;19;109122;-82
2022/07/17 09:09:07;;;;;;;2.90;0.60;;;22.40;91.60;;;;;;7342869;19;111568;-83
2022/07/17 09:11:48;;;;;;;3.63;0.93;;;22.40;90.90;;;;;;7341102;19;108957;-83
2022/07/17 09:14:15;;;;;;;4.22;1.05;;;22.40;91.10;;;;;;7335642;19;110798;-83
2022/07/17 09:16:51;;;;;;;2.88;0.90;;;22.60;91.00;;;;;;7339422;19;108140;-83
2022/07/17 09:19:32;;;;;;;2.92;1.02;;;22.60;91.10;;;;;;7339528;19;108925;-84
2022/07/17 09:22:18;;;;;;;3.03;0.75;;;22.50;90.70;;;;;;7337544;19;109193;-83
2022/07/17 09:24:47;;;;;;;3.33;0.80;;;22.60;90.90;;;;;;7338265;19;108463;-82
2022/07/17 09:27:30;;;;;;;4.05;0.80;;;22.60;89.70;;;;;;7340573;19;109159;-82
2022/07/17 09:30:00;;;;;;;6.25;0.85;;;22.60;90.00;;;;;;7336203;19;108000;-83
2022/07/17 09:32:30;;;;;;;2.10;0.95;;;22.70;89.10;;;;;;7342856;19;108960;-83
2022/07/17 09:34:59;;;;;;;4.90;0.80;;;22.80;89.20;;;;;;7338419;19;107477;-83
2022/07/17 09:37:28;;;;;;;2.65;0.90;;;22.90;88.40;;;;;;7338023;19;108506;-83
2022/07/17 09:39:57;;;;;;;3.97;0.80;;;22.90;87.60;;;;;;7340508;19;108226;-83
2022/07/17 09:42:30;;;;;;;1.50;0.60;;;22.90;87.20;;;;;;7340094;19;108228;-82
2022/07/17 09:45:09;;;;;;;4.63;1.00;;;23.00;85.70;;;;;;7340170;19;109660;-83
2022/07/17 09:47:38;;;;;;;4.20;0.70;;;23.00;85.30;;;;;;7345890;19;109588;-83
2022/07/17 09:50:07;;;;;;;4.43;0.95;;;23.20;88.60;;;;;;7348655;19;108584;-83
2022/07/17 09:52:37;;;;;;;3.55;0.88;;;23.20;86.20;;;;;;7348493;19;108210;-82
2022/07/17 09:55:05;;;;;;;5.93;1.20;;;23.20;86.70;;;;;;7350651;19;112362;-83
2022/07/17 09:57:54;;;;;;;5.45;0.93;;;23.20;87.60;;;;;;7347739;19;109793;-83
2022/07/17 10:00:25;;;;;;;3.42;1.02;;;23.30;89.00;;;;;;7348028;19;112197;-84
2022/07/17 10:02:53;;;;;;;3.20;0.90;;;23.50;87.10;;;;;;7346772;19;107924;-83
2022/07/17 10:05:20;;;;;;;2.83;1.00;;;23.50;88.10;;;;;;7346342;19;110677;-83
2022/07/17 10:07:48;;;;;;;4.28;1.23;;;23.50;87.10;;;;;;7345079;19;109190;-83
2022/07/17 10:10:17;;;;;;;4.72;1.05;;;23.70;86.20;;;;;;7345202;19;108184;-84
2022/07/17 10:12:48;;;;;;;4.43;1.00;;;23.80;87.00;;;;;;7346430;19;111477;-83
2022/07/17 10:15:17;;;;;;;3.25;1.13;;;23.90;84.70;;;;;;7343090;19;109250;-82
2022/07/17 10:23:29;;;;;;;2.78;0.80;;;23.90;82.00;;;;;;7336179;19;108705;-72
2022/07/17 10:25:59;;;;;;;2.08;1.00;;;23.90;83.00;;;;;;7339612;19;108857;-71
2022/07/17 10:28:47;;;;;;;6.75;1.02;;;24.10;84.70;;;;;;7336414;19;110881;-72
2022/07/17 10:31:25;;;;;;;4.03;0.98;;;24.30;82.70;;;;;;7335472;19;108734;-71
2022/07/17 10:34:10;;;;;;;3.35;1.00;;;24.40;81.80;;;;;;7336000;19;107144;-71
2022/07/17 10:36:40;;;;;;;4.28;0.90;;;24.50;81.60;;;;;;7341162;19;107907;-71
2022/07/17 10:39:22;;;;;;;4.32;0.90;;;24.50;78.90;;;;;;7342096;19;108098;-71
2022/07/17 10:42:02;;;;;;;2.30;0.98;;;24.60;78.00;;;;;;7345319;19;108509;-71
2022/07/17 10:46:59;;;;;;;3.53;1.00;;;24.90;81.50;;;;;;7341345;19;108012;-71
2022/07/17 10:49:26;;;;;;;4.20;0.80;;;25.00;79.60;;;;;;7341406;19;108608;-72
2022/07/17 10:51:54;;;;;;;7.70;0.93;;;25.00;79.20;;;;;;7342119;19;108299;-72
2022/07/17 10:54:33;;;;;;;2.20;0.90;;;25.10;79.00;;;;;;7341042;19;108501;-72
2022/07/17 10:57:02;;;;;;;3.97;1.08;;;25.20;78.40;;;;;;7340015;19;109209;-72
2022/07/17 10:59:29;;;;;;;9.55;1.20;;;25.30;79.10;;;;;;7340441;19;109313;-72
2022/07/17 11:01:58;;;;;;;2.70;1.17;;;25.30;76.50;;;;;;7346853;19;107528;-72
2022/07/17 11:04:36;;;;;;;4.72;1.20;;;25.40;76.50;;;;;;7341534;19;108887;-71
2022/07/17 11:07:10;;;;;;;7.50;1.20;;;25.40;75.50;;;;;;7341051;19;108329;-72
2022/07/17 11:09:47;;;;;;;2.28;1.10;;;25.40;76.40;;;;;;7341389;19;109615;-71
2022/07/17 11:12:16;;;;;;;5.78;1.30;;;25.60;74.30;;;;;;7343076;19;109257;-72
2022/07/17 11:14:44;;;;;;;4.70;1.30;;;25.40;73.00;;;;;;7343339;19;108553;-71
2022/07/17 11:17:11;;;;;;;4.20;1.20;;;25.60;74.60;;;;;;7342613;19;107854;-72
2022/07/17 11:19:43;;;;;;;4.22;1.02;;;25.70;72.80;;;;;;7338800;19;107511;-72
2022/07/17 11:22:12;;;;;;;2.60;1.17;;;25.90;76.40;;;;;;7339431;19;108596;-71
2022/07/17 11:24:49;;;;;;;2.47;1.10;;;26.10;72.70;;;;;;7347573;19;108768;-71
2022/07/17 11:27:26;;;;;;;1.67;1.10;;;26.10;73.50;;;;;;7344678;19;108012;-71
2022/07/17 11:29:54;;;;;;;;;;;26.30;76.20;;;;;;7344175;19;109003;-72
2022/07/17 11:32:22;;;;;;;7.70;1.55;;;26.30;75.10;;;;;;7347122;19;108183;-73
2022/07/17 11:34:49;;;;;;;2.05;1.25;;;26.50;73.80;;;;;;7341288;19;107414;-71
2022/07/17 11:37:16;;;;;;;10.65;1.50;;;26.50;69.20;;;;;;7338141;19;109003;-73
2022/07/17 11:39:48;;;;;;;6.40;1.25;;;26.50;72.50;;;;;;7340310;19;108013;-73
2022/07/17 11:42:21;;;;;;;8.93;1.40;;;26.60;69.80;;;;;;7343782;19;108119;-72
2022/07/17 11:44:55;;;;;;;3.70;1.23;;;26.60;69.30;;;;;;7343499;19;108961;-72
2022/07/17 11:47:26;;;;;;;3.55;1.17;;;26.60;69.00;;;;;;7348525;19;107158;-72
2022/07/17 11:50:05;;;;;;;2.20;1.10;;;26.70;70.10;;;;;;7344190;19;108422;-72
2022/07/17 11:52:44;;;;;;;2.13;1.30;;;26.80;71.70;;;;;;7343616;19;107990;-72
2022/07/17 11:55:12;;;;;;;2.58;1.48;;;27.00;69.20;;;;;;7342062;19;107448;-72
2022/07/17 11:57:50;;;;;;;2.78;1.20;;;27.10;69.00;;;;;;7343375;19;109019;-72
2022/07/17 12:00:20;;;;;;;2.05;1.30;;;27.40;66.90;;;;;;7341076;19;107277;-72
2022/07/17 12:02:59;;;;;;;4.07;1.27;;;27.10;61.00;;;;;;7341837;19;108693;-72
2022/07/17 12:05:28;;;;;;;6.75;1.20;;;27.00;62.60;;;;;;7343491;19;109029;-72
2022/07/17 12:07:56;;;;;;;3.67;1.00;;;27.00;67.80;;;;;;7344211;19;110964;-72
2022/07/17 12:10:27;;;;;;;3.85;1.10;;;27.20;67.20;;;;;;7344136;19;108309;-72
2022/07/17 12:12:59;;;;;;;5.32;1.38;;;27.40;66.30;;;;;;7343587;19;108038;-73
2022/07/17 12:15:41;;;;;;;2.22;0.93;;;27.50;67.10;;;;;;7340415;19;111163;-72
2022/07/17 12:18:23;;;;;;;5.50;1.20;;;27.70;64.90;;;;;;7343017;19;108893;-72
2022/07/17 12:20:52;;;;;;;3.28;1.17;;;27.70;65.70;;;;;;7342574;19;107948;-72
2022/07/17 12:23:40;;;;;;;4.53;1.10;;;27.80;62.30;;;;;;7338507;19;109138;-72
2022/07/17 12:26:15;;;;;;;2.30;0.90;;;27.70;62.10;;;;;;7341343;19;108915;-72
2022/07/17 12:28:45;;;;;;;2.00;1.10;;;27.60;60.00;;;;;;7342207;19;108938;-72
2022/07/17 12:31:13;;;;;;;4.80;1.20;;;27.60;59.80;;;;;;7341428;19;108162;-72
2022/07/17 12:33:41;;;;;;;4.03;0.93;;;27.50;62.30;;;;;;7346062;19;108895;-72
2022/07/17 12:36:08;;;;;;;1.75;1.30;;;27.70;63.40;;;;;;7339971;19;108662;-73
2022/07/17 12:38:35;;;;;;;5.45;1.20;;;27.90;61.10;;;;;;7338884;19;111378;-73
2022/07/17 12:41:03;;;;;;;13.32;1.50;;;28.10;62.20;;;;;;7338624;19;111025;-72
2022/07/17 12:43:30;;;;;;;3.03;1.10;;;28.30;61.50;;;;;;7336743;19;108778;-72
2022/07/17 12:45:57;;;;;;;3.95;1.38;;;28.50;59.30;;;;;;7339902;19;108075;-73
2022/07/17 12:48:33;;;;;;;5.47;1.17;;;28.70;60.90;;;;;;7339864;19;107770;-74
2022/07/17 12:51:02;;;;;;;4.63;1.40;;;28.70;59.20;;;;;;7341134;19;108167;-72
2022/07/17 12:53:30;;;;;;;5.22;1.83;;;28.70;59.40;;;;;;7338766;19;107888;-73
2022/07/17 12:55:57;;;;;;;5.97;1.40;;;28.60;57.70;;;;;;7344521;19;107025;-74